• Join FlightAware (Why Join?)
  • Login
  • US Flag 
09:05AM EDT


 

Airport Tracker/Info


-or-


 

Live Flight TrackerFlight Track Log ✈ KAP927 ✈ 04-Jul-2013 ✈ KALB - KOGS

Flight Track Log - Related Links

Times and Time Zones

All times are in EDT time to prevent confusion due to time zone crossing. See the KAP927 flight status page for this flight to view local times or setup timezone preferences in your user account.

Time Position Orientation Groundspeed Altitude Reporting Facility
EDT Latitude Longitude Course Direction KTS MPH feet Rate Location/Type
02:46PM 42.7253 -73.8447 233° Southwest 122 140 2,100  Level Boston Center
02:47PM 42.7267 -73.8928 272° West 131 151 2,800 780 Climbing Boston Center
02:48PM 42.7492 -73.9244 314° West 138 159 3,700 720 Climbing Boston Center
02:49PM 42.7803 -73.9478 331° Northwest 143 165 4,300 660 Climbing Boston Center
02:49PM 42.8111 -73.9742 328° Northwest 145 167 5,000 780 Climbing Boston Center
02:51PM 42.8503 -74.0061 329° Northwest 145 167 5,900 840 Climbing Boston Center
02:52PM 42.8956 -74.0358 334° Northwest 147 169 7,000 900 Climbing Boston Center
02:53PM 42.9267 -74.0564 334° Northwest 141 162 8,000 900 Climbing Boston Center
02:54PM 42.9594 -74.0856 327° Northwest 136 157 8,800 780 Climbing Boston Center
02:55PM 42.9947 -74.1122 331° Northwest 136 157 9,600 660 Climbing Boston Center
02:56PM 43.0275 -74.1386 330° Northwest 136 157 10,200 600 Climbing Boston Center
02:57PM 43.0625 -74.1650 331° Northwest 141 162 10,900 600 Climbing Boston Center
02:58PM 43.0997 -74.1944 330° Northwest 141 162 11,600 540 Climbing Boston Center
02:59PM 43.1389 -74.2269 329° Northwest 141 162 12,100 240 Climbing Boston Center
03:00PM 43.1739 -74.2536 331° Northwest 146 168 12,100  Level Boston Center
03:01PM 43.2192 -74.2892 330° Northwest 163 188 12,100  Level Boston Center
03:02PM 43.2497 -74.3300 316° Northwest 163 188 12,100  Level Boston Center
03:03PM 43.2778 -74.3850 305° West 163 188 12,100  Level Boston Center
03:04PM 43.3022 -74.4286 308° West 158 182 12,100  Level Boston Center
03:05PM 43.3306 -74.4781 308° West 158 182 12,100  Level Boston Center
03:06PM 43.3547 -74.5244 306° West 158 182 12,100  Level Boston Center
03:07PM 43.3808 -74.5742 306° West 158 182 12,100  Level Boston Center
03:08PM 43.4092 -74.6208 310° West 153 176 12,100  Level Boston Center
03:10PM 43.4614 -74.7142 308° West 153 176 12,100  Level Boston Center
03:11PM 43.4897 -74.7583 311° West 158 182 12,100  Level Boston Center
03:12PM 43.5158 -74.8078 306° West 158 182 12,100  Level Boston Center
03:13PM 43.5422 -74.8492 311° West 158 182 12,100  Level Boston Center
03:14PM 43.5703 -74.8903 313° West 158 182 12,100  Level Boston Center
03:15PM 43.6158 -74.9094 343° North 158 182 12,100  Level Boston Center
03:16PM 43.6592 -74.9342 338° Northwest 158 182 12,100  Level Boston Center
03:17PM 43.7025 -74.9558 340° North 168 193 12,100  Level Boston Center
03:18PM 43.7478 -74.9808 338° Northwest 168 193 12,100 -240 Level Boston Center
03:19PM 43.7972 -75.0058 340° North 173 199 11,700 -480 Descending Boston Center
03:20PM 43.8486 -75.0283 342° North 178 205 11,200 -480 Descending Boston Center
03:21PM 43.8981 -75.0536 340° North 189 217 10,800 -600 Descending Boston Center
03:22PM 43.9517 -75.0847 337° Northwest 195 224 10,100 -720 Descending Boston Center
03:23PM 44.0053 -75.1100 341° North 195 224 9,400 -720 Descending Boston Center
03:24PM 44.0567 -75.1383 338° Northwest 195 224 8,700 -660 Descending Boston Center
03:25PM 44.1081 -75.1667 338° Northwest 195 224 8,100 -600 Descending Boston Center
03:26PM 44.1597 -75.1922 340° North 195 224 7,600 -540 Descending Boston Center
03:27PM 44.2111 -75.2208 338° Northwest 195 224 7,100 -600 Descending Boston Center
03:28PM 44.2625 -75.2433 343° North 190 219 6,500 -600 Descending Boston Center
03:29PM 44.3119 -75.2689 340° North 190 219 6,000 -540 Descending Boston Center
03:30PM 44.3614 -75.2917 342° North 190 219 5,500 -600 Descending Boston Center
03:31PM 44.4106 -75.3231 335° Northwest 190 219 4,900 -720 Descending Boston Center
03:32PM 44.4600 -75.3458 342° North 190 219 4,100 -780 Descending Boston Center
03:33PM 44.5117 -75.3658 345° North 190 219 3,400 -720 Descending Boston Center